createdAt,value
2018-12-15T00:02:45.941Z,100994.81
2018-12-15T00:05:51.202Z,101001.41
2018-12-15T00:08:54.449Z,101009.04
2018-12-15T00:11:57.700Z,101004.19
2018-12-15T00:15:00.965Z,101006.63
2018-12-15T00:18:04.334Z,101013.50
2018-12-15T00:21:07.609Z,101005.67
2018-12-15T00:24:10.865Z,101011.25
2018-12-15T00:27:14.114Z,101003.95
2018-12-15T00:30:17.321Z,101013.44
2018-12-15T00:33:20.548Z,101012.78
2018-12-15T00:36:23.794Z,101009.17
2018-12-15T00:39:27.045Z,101015.77
2018-12-15T00:42:30.488Z,101016.03
2018-12-15T00:45:33.757Z,101027.20
2018-12-15T00:48:37.011Z,101028.68
2018-12-15T00:51:40.228Z,101031.42
2018-12-15T00:54:43.461Z,101028.62
2018-12-15T00:57:46.697Z,101031.19
2018-12-15T01:00:49.909Z,101032.66
2018-12-15T01:03:53.155Z,101033.74
2018-12-15T01:06:56.401Z,101039.13
2018-12-15T01:09:59.640Z,101038.25
2018-12-15T01:13:02.852Z,101043.17
2018-12-15T01:16:06.125Z,101040.02
2018-12-15T01:19:09.369Z,101043.47
2018-12-15T01:22:12.592Z,101052.28
2018-12-15T01:25:15.837Z,101054.60
2018-12-15T01:28:19.085Z,101049.75
2018-12-15T01:31:22.341Z,101059.94
2018-12-15T01:34:25.557Z,101059.94
2018-12-15T01:37:28.810Z,101064.20
2018-12-15T01:40:32.112Z,101065.70
2018-12-15T01:43:35.378Z,101065.41
2018-12-15T01:46:38.637Z,101074.47
2018-12-15T01:49:41.874Z,101074.17
2018-12-15T01:52:45.108Z,101077.92
2018-12-15T01:55:48.358Z,101082.83
2018-12-15T01:58:51.576Z,101081.89
2018-12-15T02:01:54.829Z,101089.54
2018-12-15T02:04:58.045Z,101086.44
2018-12-15T02:08:01.413Z,101082.55
2018-12-15T02:11:04.677Z,101080.64
2018-12-15T02:14:07.931Z,101083.12
2018-12-15T02:17:11.840Z,101087.64
2018-12-15T02:20:15.079Z,101080.20
2018-12-15T02:23:18.437Z,101072.38
2018-12-15T02:26:21.681Z,101074.98
2018-12-15T02:29:24.896Z,101079.20
2018-12-15T02:32:28.136Z,101074.30
2018-12-15T02:35:31.470Z,101078.03
2018-12-15T02:38:34.704Z,101073.34
2018-12-15T02:41:38.048Z,100884.19
2018-12-15T02:44:41.373Z,101071.49
2018-12-15T02:47:44.561Z,101077.67
2018-12-15T02:50:47.751Z,101076.31
2018-12-15T02:53:50.972Z,101079.28
2018-12-15T02:56:54.149Z,101082.11
2018-12-15T02:59:57.348Z,101078.50
2018-12-15T03:03:00.552Z,101073.00
2018-12-15T03:06:03.897Z,101071.98
2018-12-15T03:09:07.287Z,101065.16
2018-12-15T03:12:12.507Z,101065.17
2018-12-15T03:15:15.712Z,101068.48
2018-12-15T03:18:18.933Z,101060.64
2018-12-15T03:21:22.125Z,101056.75
2018-12-15T03:24:25.284Z,101063.69
2018-12-15T03:27:28.473Z,101058.05
2018-12-15T03:30:31.913Z,101057.45
2018-12-15T03:33:35.169Z,101055.00
2018-12-15T03:36:38.788Z,101051.00
2018-12-15T03:39:41.969Z,101047.30
2018-12-15T03:42:45.180Z,101045.42
2018-12-15T03:45:50.393Z,101047.48
2018-12-15T03:48:54.166Z,101046.91
2018-12-15T03:51:57.351Z,101043.28
2018-12-15T03:55:00.532Z,101038.42
2018-12-15T03:58:03.805Z,101045.70
2018-12-15T04:01:07.109Z,101041.39
2018-12-15T04:04:10.303Z,101037.18
2018-12-15T04:07:13.497Z,101039.30
2018-12-15T04:10:16.681Z,101039.38
2018-12-15T04:13:19.917Z,101034.67
2018-12-15T04:16:23.207Z,101031.67
2018-12-15T04:19:26.415Z,101034.28
2018-12-15T04:22:29.609Z,101025.72
2018-12-15T04:25:32.805Z,101022.40
2018-12-15T04:28:36.124Z,101018.50
2018-12-15T04:31:39.320Z,101027.32
2018-12-15T04:34:42.529Z,101029.04
2018-12-15T04:37:45.725Z,101027.81
2018-12-15T04:40:48.904Z,101032.73
2018-12-15T04:43:52.573Z,101028.23
2018-12-15T04:46:56.194Z,101029.63
2018-12-15T04:49:59.421Z,101029.34
2018-12-15T04:53:02.594Z,101029.04
2018-12-15T04:56:05.803Z,101023.41
2018-12-15T04:59:09.048Z,101031.18
2018-12-15T05:02:12.263Z,101026.44
2018-12-15T05:05:15.464Z,101026.44
2018-12-15T05:08:18.632Z,101022.47
2018-12-15T05:11:21.829Z,101035.05
2018-12-15T05:14:25.003Z,101034.16
2018-12-15T05:17:28.202Z,101031.83
2018-12-15T05:20:31.633Z,101031.97
2018-12-15T05:23:34.820Z,101027.56
2018-12-15T05:26:38.005Z,101029.17
2018-12-15T05:29:41.183Z,101027.27
2018-12-15T05:32:44.376Z,101036.27
2018-12-15T05:35:47.568Z,101034.92
2018-12-15T05:38:50.790Z,101032.43
2018-12-15T05:41:54.020Z,101033.08
2018-12-15T05:44:57.193Z,101026.91
2018-12-15T05:48:00.384Z,101028.47
2018-12-15T05:51:03.737Z,101026.55
2018-12-15T05:54:06.926Z,101034.73
2018-12-15T05:57:10.121Z,101035.16
2018-12-15T06:00:13.460Z,101030.77
2018-12-15T06:03:16.672Z,101032.19
2018-12-15T06:06:19.878Z,101033.63
2018-12-15T06:09:23.085Z,101036.11
2018-12-15T06:12:26.264Z,101045.76
2018-12-15T06:15:29.456Z,101039.66
2018-12-15T06:18:32.665Z,101043.52
2018-12-15T06:21:35.948Z,101038.30
2018-12-15T06:24:39.216Z,101045.53
2018-12-15T06:27:42.416Z,101049.80
2018-12-15T06:30:45.624Z,101048.44
2018-12-15T06:33:48.791Z,101048.79
2018-12-15T06:36:51.996Z,101048.37
2018-12-15T06:39:55.209Z,101040.98
2018-12-15T06:42:58.404Z,101045.41
2018-12-15T06:46:01.623Z,100985.47
2018-12-15T06:49:04.813Z,101035.27
2018-12-15T06:52:08.031Z,101035.81
2018-12-15T06:55:11.357Z,101038.07
2018-12-15T06:58:14.552Z,101042.44
2018-12-15T07:01:17.796Z,101050.52
2018-12-15T07:04:20.980Z,101044.64
2018-12-15T07:07:24.304Z,101037.83
2018-12-15T07:10:27.496Z,101042.28
2018-12-15T07:13:30.692Z,101036.33
2018-12-15T07:16:34.009Z,101027.45
2018-12-15T07:19:37.208Z,101033.20
2018-12-15T07:22:40.428Z,101034.09
2018-12-15T07:25:43.932Z,101030.94
2018-12-15T07:28:48.241Z,100982.52
2018-12-15T07:31:51.423Z,101033.44
2018-12-15T07:35:00.744Z,101041.80
2018-12-15T07:37:59.838Z,101045.70
2018-12-15T07:41:03.177Z,101050.52
2018-12-15T07:44:06.408Z,101048.61
2018-12-15T07:47:09.585Z,101047.89
2018-12-15T07:50:12.904Z,101048.14
2018-12-15T07:53:16.129Z,101046.66
2018-12-15T07:59:44.485Z,101048.92
2018-12-15T08:02:47.688Z,101050.41
2018-12-15T08:05:50.900Z,101049.98
2018-12-15T08:08:54.071Z,101053.25
2018-12-15T08:12:03.064Z,101048.73
2018-12-15T08:15:07.899Z,101054.90
2018-12-15T08:18:11.265Z,101061.23
2018-12-15T08:21:14.472Z,101054.72
2018-12-15T08:24:17.680Z,101059.83
2018-12-15T08:27:20.906Z,101062.14
2018-12-15T08:30:24.095Z,101059.46
2018-12-15T08:33:27.328Z,101061.08
2018-12-15T08:39:51.664Z,101073.94
2018-12-15T08:42:54.955Z,101065.11
2018-12-15T08:45:58.590Z,101063.33
2018-12-15T08:49:04.781Z,101064.81
2018-12-15T08:52:07.132Z,101073.52
2018-12-15T08:55:10.368Z,101064.52
2018-12-15T08:58:14.647Z,101069.98
2018-12-15T09:01:18.077Z,101071.86
2018-12-15T09:04:21.304Z,101073.04
2018-12-15T09:07:24.500Z,101078.70
2018-12-15T09:10:27.844Z,101079.17
2018-12-15T09:13:31.132Z,101077.51
2018-12-15T09:16:34.448Z,101081.17
2018-12-15T09:19:37.666Z,101079.94
2018-12-15T09:22:40.872Z,101081.12
2018-12-15T09:25:44.857Z,101086.73
2018-12-15T09:28:48.292Z,101081.46
2018-12-15T09:31:51.504Z,101085.56
2018-12-15T09:34:54.709Z,101082.95
2018-12-15T09:37:59.035Z,101094.58
2018-12-15T09:41:02.272Z,101092.80
2018-12-15T09:44:05.620Z,101095.48
2018-12-15T09:47:08.826Z,101096.00
2018-12-15T09:50:13.046Z,101087.51
2018-12-15T09:53:16.364Z,101092.63
2018-12-15T09:56:19.676Z,101082.31
2018-12-15T09:59:23.101Z,101077.27
2018-12-15T10:02:26.303Z,101082.54
2018-12-15T10:05:30.624Z,101083.14
2018-12-15T10:08:33.848Z,101074.89
2018-12-15T10:11:37.147Z,101082.18
2018-12-15T10:14:40.472Z,101073.88
2018-12-15T10:17:44.827Z,101069.42
2018-12-15T10:20:48.003Z,101058.05
2018-12-15T10:23:51.228Z,101053.23
2018-12-15T10:26:54.440Z,101054.19
2018-12-15T10:30:03.226Z,101044.18
2018-12-15T10:33:06.620Z,101038.95
2018-12-15T10:36:09.801Z,101036.23
2018-12-15T10:39:13.132Z,101029.28
2018-12-15T10:42:16.360Z,101028.92
2018-12-15T10:45:20.088Z,101022.59
2018-12-15T10:48:23.441Z,101017.30
2018-12-15T10:51:26.768Z,101013.22
2018-12-15T10:54:30.112Z,101005.03
2018-12-15T10:57:33.677Z,100991.84
2018-12-15T11:00:42.785Z,100994.34
2018-12-15T11:03:46.392Z,100987.66
2018-12-15T11:06:49.836Z,100986.45
2018-12-15T11:09:53.246Z,100993.00
2018-12-15T11:12:57.583Z,101003.20
2018-12-15T11:16:01.929Z,100996.30
2018-12-15T11:19:05.423Z,100986.83
2018-12-15T11:22:08.742Z,100986.66
2018-12-15T11:25:12.076Z,100990.56
2018-12-15T11:28:15.420Z,100992.81
2018-12-15T11:31:18.740Z,100991.23
2018-12-15T11:34:22.241Z,100973.25
2018-12-15T11:37:25.578Z,100972.02
2018-12-15T11:40:28.780Z,100938.45
2018-12-15T11:43:32.217Z,100968.03
2018-12-15T11:46:35.556Z,100958.08
2018-12-15T11:49:43.619Z,100953.67
2018-12-15T11:52:44.109Z,100941.92
2018-12-15T11:55:47.893Z,100933.47
2018-12-15T11:58:54.928Z,100923.85
2018-12-15T12:01:58.270Z,100914.42
2018-12-15T12:05:01.613Z,100914.48
2018-12-15T12:08:06.320Z,100916.06
2018-12-15T12:11:09.532Z,100902.95
2018-12-15T12:14:12.837Z,100909.48
2018-12-15T12:17:16.238Z,100897.06
2018-12-15T12:20:19.570Z,100885.83
2018-12-15T12:23:22.888Z,100883.22
2018-12-15T12:26:28.094Z,100873.69
2018-12-15T12:29:31.320Z,100872.73
2018-12-15T12:32:34.537Z,100867.09
2018-12-15T12:35:37.752Z,100856.66
2018-12-15T12:42:19.869Z,100852.79
2018-12-15T12:45:23.777Z,100857.27
2018-12-15T12:48:27.528Z,100855.98
2018-12-15T12:51:30.941Z,100851.50
2018-12-15T12:54:34.140Z,100848.30
2018-12-15T12:57:37.475Z,100852.08
2018-12-15T13:00:40.828Z,100846.48
2018-12-15T13:03:44.257Z,100845.39
2018-12-15T13:06:47.420Z,100849.67
2018-12-15T13:09:50.605Z,100843.08
2018-12-15T13:12:55.004Z,100845.91
2018-12-15T13:15:58.208Z,100841.69
2018-12-15T13:19:01.537Z,100843.09
2018-12-15T13:22:04.865Z,100839.34
2018-12-15T13:25:08.877Z,100837.03
2018-12-15T13:28:12.063Z,100838.49
2018-12-15T13:31:15.429Z,100835.41
2018-12-15T13:34:18.621Z,100836.66
2018-12-15T13:37:21.804Z,100843.81
2018-12-15T13:40:25.002Z,100844.98
2018-12-15T13:43:28.457Z,100839.65
2018-12-15T13:46:31.808Z,100839.44
2018-12-15T13:49:35.137Z,100821.39
2018-12-15T13:52:38.449Z,100821.13
2018-12-15T13:55:41.706Z,100815.55
2018-12-15T13:58:44.954Z,100817.30
2018-12-15T14:01:48.173Z,100816.27
2018-12-15T14:04:51.384Z,100805.15
2018-12-15T14:07:54.574Z,100802.44
2018-12-15T14:10:58.564Z,100793.26
2018-12-15T14:14:01.892Z,100806.97
2018-12-15T14:17:05.690Z,100799.37
2018-12-15T14:20:09.041Z,100802.55
2018-12-15T14:23:12.352Z,100795.81
2018-12-15T14:26:15.572Z,100794.05
2018-12-15T14:29:18.748Z,100792.13
2018-12-15T14:32:21.977Z,100777.40
2018-12-15T14:35:25.185Z,100773.69
2018-12-15T14:38:28.546Z,100770.52
2018-12-15T14:41:31.720Z,100769.77
2018-12-15T14:44:34.913Z,100759.59
2018-12-15T14:47:38.231Z,100754.12
2018-12-15T14:50:41.437Z,100753.97
2018-12-15T14:53:45.784Z,100743.68
2018-12-15T14:56:48.952Z,100738.78
2018-12-15T14:59:52.837Z,100739.30
2018-12-15T15:02:56.008Z,100732.70
2018-12-15T15:05:59.205Z,100721.28
2018-12-15T15:09:04.484Z,100719.34
2018-12-15T15:12:09.727Z,100713.39
2018-12-15T15:15:12.903Z,100701.65
2018-12-15T15:18:16.141Z,100698.87
2018-12-15T15:21:19.352Z,100691.38
2018-12-15T15:24:22.883Z,100688.36
2018-12-15T15:27:26.104Z,100684.13
2018-12-15T15:30:29.280Z,100676.80
2018-12-15T15:33:32.536Z,100682.06
2018-12-15T15:36:35.773Z,100680.58
2018-12-15T15:39:39.412Z,100673.88
2018-12-15T15:42:42.644Z,100674.61
2018-12-15T15:45:45.857Z,100662.55
2018-12-15T15:48:49.065Z,100657.62
2018-12-15T15:51:52.273Z,100653.76
2018-12-15T15:54:55.540Z,100651.05
2018-12-15T15:57:58.868Z,100640.98
2018-12-15T16:01:02.050Z,100639.92
2018-12-15T16:04:07.295Z,100633.34
2018-12-15T16:07:10.477Z,100608.89
2018-12-15T16:10:14.168Z,100634.47
2018-12-15T16:13:17.397Z,100627.02
2018-12-15T16:16:33.257Z,100630.33
2018-12-15T16:19:36.476Z,100621.77
2018-12-15T16:22:39.828Z,100624.46
2018-12-15T16:25:43.137Z,100614.67
2018-12-15T16:28:46.369Z,100603.69
2018-12-15T16:31:49.585Z,100594.52
2018-12-15T16:34:52.828Z,100584.08
2018-12-15T16:37:56.416Z,100575.29
2018-12-15T16:40:59.661Z,100572.63
2018-12-15T16:44:03.176Z,100565.17
2018-12-15T16:47:06.560Z,100552.23
2018-12-15T16:50:13.414Z,100546.23
2018-12-15T16:53:16.737Z,100531.20
2018-12-15T16:59:42.696Z,100536.69
2018-12-15T17:02:45.929Z,100527.01
2018-12-15T17:05:49.289Z,100530.45
2018-12-15T17:08:52.665Z,100543.95
2018-12-15T17:11:56.624Z,100549.63
2018-12-15T17:14:59.994Z,100532.55
2018-12-15T17:18:03.376Z,100531.86
2018-12-15T17:21:07.061Z,100523.12
2018-12-15T17:24:11.444Z,100516.59
2018-12-15T17:27:26.787Z,100522.98
2018-12-15T17:30:30.157Z,100527.69
2018-12-15T17:33:33.380Z,100530.05
2018-12-15T17:36:36.724Z,100508.86
2018-12-15T17:39:40.083Z,100510.68
2018-12-15T17:42:43.473Z,100503.89
2018-12-15T17:45:47.857Z,100495.69
2018-12-15T17:48:51.232Z,100484.34
2018-12-15T17:51:55.440Z,100479.36
2018-12-15T17:54:58.815Z,100476.23
2018-12-15T17:58:03.177Z,100467.63
2018-12-15T18:01:06.589Z,100458.74
2018-12-15T18:04:09.904Z,100461.13
2018-12-15T18:07:13.137Z,100447.17
2018-12-15T18:10:16.372Z,100445.81
2018-12-15T18:13:19.614Z,100435.58
2018-12-15T18:16:22.868Z,100429.25
2018-12-15T18:19:27.534Z,100425.95
2018-12-15T18:22:30.761Z,100416.63
2018-12-15T18:25:34.215Z,100412.88
2018-12-15T18:28:38.541Z,100405.41
2018-12-15T18:31:41.790Z,100402.66
2018-12-15T18:34:45.117Z,100390.59
2018-12-15T18:37:49.473Z,100394.28
2018-12-15T18:40:54.245Z,100388.54
2018-12-15T18:43:58.997Z,100379.00
2018-12-15T18:47:02.272Z,100369.54
2018-12-15T18:50:08.331Z,100369.47
2018-12-15T18:53:11.557Z,100364.75
2018-12-15T18:56:14.889Z,100359.63
2018-12-15T18:59:18.552Z,100351.09
2018-12-15T19:02:28.400Z,100336.09
2018-12-15T19:05:31.752Z,100335.09
2018-12-15T19:08:35.118Z,100323.83
2018-12-15T19:11:38.377Z,100314.16
2018-12-15T19:14:41.724Z,100317.98
2018-12-15T19:17:45.049Z,100311.56
2018-12-15T19:20:48.256Z,100300.63
2018-12-15T19:23:53.307Z,100292.07
2018-12-15T19:26:56.637Z,100290.09
2018-12-15T19:29:59.900Z,100300.17
2018-12-15T19:33:03.146Z,100286.69
2018-12-15T19:36:06.529Z,100293.03
2018-12-15T19:39:09.873Z,100283.11
2018-12-15T19:42:14.633Z,100282.20
2018-12-15T19:45:18.006Z,100281.98
2018-12-15T19:48:21.376Z,100277.49
2018-12-15T19:51:29.630Z,100279.09
2018-12-15T19:54:29.848Z,100274.42
2018-12-15T19:57:33.061Z,100270.98
2018-12-15T20:00:36.284Z,100269.93
2018-12-15T20:03:39.663Z,100272.83
2018-12-15T20:06:42.893Z,100262.75
2018-12-15T20:09:46.106Z,100259.81
2018-12-15T20:12:49.407Z,100245.19
2018-12-15T20:15:52.905Z,100232.59
2018-12-15T20:18:56.159Z,100220.22
2018-12-15T20:21:59.537Z,100227.14
2018-12-15T20:25:02.934Z,100225.63
2018-12-15T20:28:06.176Z,100214.25
2018-12-15T20:31:09.514Z,100212.17
2018-12-15T20:34:12.744Z,100202.02
2018-12-15T20:37:15.969Z,100196.44
2018-12-15T20:40:19.205Z,100200.98
2018-12-15T20:43:22.686Z,100185.32
2018-12-15T20:46:26.673Z,100179.27
2018-12-15T20:49:29.894Z,100176.26
2018-12-15T20:52:33.112Z,100173.02
2018-12-15T20:55:36.450Z,100172.10
2018-12-15T20:58:39.714Z,100156.72
2018-12-15T21:01:43.052Z,100160.30
2018-12-15T21:04:46.281Z,100146.99
2018-12-15T21:07:49.521Z,100129.91
2018-12-15T21:10:52.824Z,100139.34
2018-12-15T21:13:56.054Z,100137.50
2018-12-15T21:16:59.256Z,100133.94
2018-12-15T21:20:02.634Z,100120.58
2018-12-15T21:23:07.829Z,100125.06
2018-12-15T21:26:11.194Z,100106.91
2018-12-15T21:29:14.596Z,100100.33
2018-12-15T21:32:17.921Z,100103.09
2018-12-15T21:35:21.161Z,100097.23
2018-12-15T21:38:24.429Z,100089.27
2018-12-15T21:41:27.776Z,100063.48
2018-12-15T21:44:31.000Z,100054.70
2018-12-15T21:47:34.235Z,100041.97
2018-12-15T21:50:37.510Z,100043.38
2018-12-15T21:53:40.734Z,100046.67
2018-12-15T21:56:44.006Z,100045.95
2018-12-15T21:59:47.248Z,100042.55
2018-12-15T22:02:50.465Z,100042.81
2018-12-15T22:05:53.705Z,100033.70
2018-12-15T22:08:56.905Z,100021.77
2018-12-15T22:12:00.146Z,100016.60
2018-12-15T22:15:04.043Z,100004.12
2018-12-15T22:18:07.301Z,99992.34
2018-12-15T22:21:10.740Z,99997.92
2018-12-15T22:24:14.000Z,99993.46
2018-12-15T22:27:17.322Z,99987.76
2018-12-15T22:30:20.612Z,99979.01
2018-12-15T22:33:23.840Z,99969.48
2018-12-15T22:36:27.082Z,99975.03
2018-12-15T22:39:30.289Z,99956.89
2018-12-15T22:42:33.518Z,99952.45
2018-12-15T22:45:36.737Z,99945.11
2018-12-15T22:48:40.010Z,99932.87
2018-12-15T22:51:43.481Z,99917.20
2018-12-15T22:54:46.801Z,99910.01
2018-12-15T22:57:50.032Z,99913.55
2018-12-15T23:00:59.813Z,99904.05
2018-12-15T23:04:05.193Z,99887.24
2018-12-15T23:07:08.565Z,99888.41
2018-12-15T23:10:11.950Z,99874.88
2018-12-15T23:13:15.150Z,99872.36
2018-12-15T23:16:18.397Z,99861.95
2018-12-15T23:19:21.592Z,99865.28
2018-12-15T23:22:24.886Z,99878.53
2018-12-15T23:25:28.172Z,99880.69
2018-12-15T23:28:31.409Z,99883.23
2018-12-15T23:31:34.632Z,99868.91
2018-12-15T23:34:37.853Z,99868.34
2018-12-15T23:37:41.097Z,99876.72
2018-12-15T23:40:44.320Z,99877.14
2018-12-15T23:43:47.529Z,99868.64
2018-12-15T23:46:50.892Z,99866.48
2018-12-15T23:49:54.169Z,99868.41
2018-12-15T23:52:57.407Z,99870.11
2018-12-15T23:56:00.657Z,99861.73
2018-12-15T23:59:03.898Z,99855.05
